Time;durP1;ratioP1;P1;durP2;ratioP2;P2;SDS_P1;SDS_P2;PMS_P1;PMS_P2;Temp;Humidity;BMP_temperature;BMP_pressure;BME280_temperature;BME280_humidity;BME280_pressure;Samples;Min_cycle;Max_cycle;Signal;HPM_P1;HPM_P2
2023/10/26 00:01:53;;;;;;;1.33;0.70;;;10.60;99.90;;;;;;4409462;32;20143;-63
2023/10/26 00:04:19;;;;;;;2.42;1.90;;;10.70;99.90;;;;;;4403804;32;21632;-61
2023/10/26 00:06:44;;;;;;;0.57;0.52;;;10.60;99.90;;;;;;4406156;32;20108;-61
2023/10/26 00:09:10;;;;;;;0.80;0.80;;;10.70;99.90;;;;;;4406209;32;20058;-62
2023/10/26 00:11:35;;;;;;;1.17;0.70;;;10.60;99.90;;;;;;4409155;32;20635;-62
2023/10/26 00:14:01;;;;;;;0.32;0.32;;;10.70;99.90;;;;;;4409396;32;20471;-59
2023/10/26 00:16:27;;;;;;;0.73;0.73;;;10.60;99.90;;;;;;4401727;32;20102;-61
2023/10/26 00:18:52;;;;;;;1.08;1.02;;;10.60;99.90;;;;;;4403411;32;20094;-60
2023/10/26 00:21:18;;;;;;;0.93;0.60;;;10.60;99.90;;;;;;4406079;32;20510;-60
2023/10/26 00:23:43;;;;;;;0.65;0.50;;;10.60;99.90;;;;;;4408632;32;20074;-60
2023/10/26 00:26:09;;;;;;;0.65;0.65;;;10.60;99.90;;;;;;4408748;32;20139;-60
2023/10/26 00:28:34;;;;;;;3.80;1.40;;;10.60;99.90;;;;;;4404276;32;20070;-61
2023/10/26 00:31:00;;;;;;;5.43;1.02;;;10.60;99.90;;;;;;4405311;32;20065;-61
2023/10/26 00:33:25;;;;;;;0.93;0.93;;;10.50;99.90;;;;;;4406628;32;20069;-60
2023/10/26 00:35:53;;;;;;;2.17;1.20;;;10.60;99.90;;;;;;4405063;32;20077;-61
2023/10/26 00:38:18;;;;;;;0.57;0.43;;;10.60;99.90;;;;;;4396059;32;20058;-61
2023/10/26 00:40:43;;;;;;;0.60;0.60;;;10.60;99.90;;;;;;4407560;32;20070;-61
2023/10/26 00:43:21;;;;;;;0.40;0.40;;;10.60;99.90;;;;;;4404395;32;20138;-60
2023/10/26 00:45:49;;;;;;;0.40;0.40;;;10.60;99.90;;;;;;4401449;32;20117;-60
2023/10/26 00:48:14;;;;;;;0.50;0.50;;;10.50;99.90;;;;;;4403229;32;20098;-60
2023/10/26 00:50:41;;;;;;;0.98;0.75;;;10.60;99.90;;;;;;4404488;32;20137;-59
2023/10/26 00:53:07;;;;;;;0.60;0.60;;;10.60;99.90;;;;;;4405688;32;20078;-60
2023/10/26 00:55:33;;;;;;;1.00;0.70;;;10.60;99.90;;;;;;4407678;32;20459;-61
2023/10/26 00:57:58;;;;;;;0.82;0.82;;;10.50;99.90;;;;;;4397415;32;20070;-61
2023/10/26 01:00:26;;;;;;;3.45;0.73;;;10.50;99.90;;;;;;4404105;32;20106;-60
2023/10/26 01:02:51;;;;;;;0.80;0.80;;;10.60;99.90;;;;;;4404631;32;20085;-61
2023/10/26 01:05:17;;;;;;;0.95;0.52;;;10.60;99.90;;;;;;4391395;32;20094;-61
2023/10/26 01:07:42;;;;;;;1.92;1.62;;;10.50;99.90;;;;;;4401984;32;20094;-60
2023/10/26 01:10:08;;;;;;;0.40;0.40;;;10.50;99.90;;;;;;4402005;32;20089;-61
2023/10/26 01:12:34;;;;;;;0.45;0.45;;;10.60;99.90;;;;;;4404138;32;20101;-61
2023/10/26 01:14:59;;;;;;;0.47;0.47;;;10.60;99.90;;;;;;4407791;32;20411;-60
2023/10/26 01:17:25;;;;;;;0.60;0.60;;;10.50;99.90;;;;;;4400200;32;20759;-60
2023/10/26 01:19:50;;;;;;;4.28;0.77;;;10.50;99.90;;;;;;4403501;32;20089;-60
2023/10/26 01:22:16;;;;;;;0.60;0.60;;;10.50;99.90;;;;;;4405258;32;20057;-61
2023/10/26 01:24:41;;;;;;;0.73;0.73;;;10.50;99.90;;;;;;4406972;32;20443;-61
2023/10/26 01:27:07;;;;;;;0.60;0.52;;;10.50;99.90;;;;;;4404501;32;20065;-61
2023/10/26 01:29:33;;;;;;;0.47;0.47;;;10.50;99.90;;;;;;4408223;32;20827;-62
2023/10/26 01:31:59;;;;;;;1.15;0.95;;;10.50;99.90;;;;;;4407756;32;20089;-61
2023/10/26 01:34:25;;;;;;;0.43;0.43;;;10.50;99.90;;;;;;4404597;32;20093;-62
2023/10/26 01:36:50;;;;;;;2.55;1.12;;;10.50;99.90;;;;;;4400900;32;20078;-60
2023/10/26 01:39:17;;;;;;;0.90;0.88;;;10.50;99.90;;;;;;4404479;32;20112;-61
2023/10/26 01:41:43;;;;;;;0.45;0.45;;;10.60;99.90;;;;;;4409286;32;20418;-62
2023/10/26 01:44:09;;;;;;;0.88;0.60;;;10.60;99.90;;;;;;4407983;32;20065;-60
2023/10/26 01:46:34;;;;;;;4.55;1.58;;;10.60;99.90;;;;;;4408055;32;20094;-62
2023/10/26 01:49:01;;;;;;;0.65;0.65;;;10.50;99.90;;;;;;4406203;32;20814;-61
2023/10/26 01:51:27;;;;;;;0.68;0.68;;;10.60;99.90;;;;;;4403934;32;20074;-62
2023/10/26 01:53:52;;;;;;;1.77;0.90;;;10.60;99.90;;;;;;4410003;32;20074;-62
2023/10/26 01:56:18;;;;;;;1.75;0.75;;;10.50;99.90;;;;;;4407389;32;21171;-61
2023/10/26 01:58:44;;;;;;;1.67;0.70;;;10.50;99.90;;;;;;4405671;32;20128;-61
2023/10/26 02:01:09;;;;;;;0.57;0.57;;;10.50;99.90;;;;;;4407494;32;20132;-62
2023/10/26 02:03:35;;;;;;;0.50;0.50;;;10.50;99.90;;;;;;4404711;32;20088;-62
2023/10/26 02:06:02;;;;;;;2.83;0.60;;;10.50;99.90;;;;;;4406483;32;20061;-62
2023/10/26 02:08:28;;;;;;;0.82;0.65;;;10.50;99.90;;;;;;4404043;32;20070;-61
2023/10/26 02:10:53;;;;;;;0.35;0.35;;;10.60;99.90;;;;;;4404638;32;20070;-60
2023/10/26 02:13:19;;;;;;;0.57;0.52;;;10.50;99.90;;;;;;4409325;32;20061;-61
2023/10/26 02:15:44;;;;;;;1.42;0.80;;;10.50;99.90;;;;;;4409374;32;20092;-61
2023/10/26 02:18:09;;;;;;;0.50;0.50;;;10.50;99.90;;;;;;4399174;32;20086;-62
2023/10/26 02:20:35;;;;;;;2.12;1.23;;;10.50;99.90;;;;;;4409396;32;20098;-61
2023/10/26 02:23:02;;;;;;;0.85;0.82;;;10.50;99.90;;;;;;4407256;32;20082;-61
2023/10/26 02:25:27;;;;;;;2.05;0.93;;;10.50;99.90;;;;;;4404642;32;20239;-62
2023/10/26 02:27:53;;;;;;;0.40;0.40;;;10.50;99.90;;;;;;4405815;32;20383;-62
2023/10/26 02:30:18;;;;;;;0.45;0.45;;;10.50;99.90;;;;;;4409819;32;20105;-61
2023/10/26 02:32:44;;;;;;;0.60;0.60;;;10.50;99.90;;;;;;4405750;32;20081;-61
2023/10/26 02:35:09;;;;;;;0.70;0.70;;;10.50;99.90;;;;;;4403192;32;20566;-61
2023/10/26 02:37:38;;;;;;;1.15;0.62;;;10.60;99.90;;;;;;4401252;32;20090;-61
2023/10/26 02:40:05;;;;;;;1.25;0.50;;;10.60;99.90;;;;;;4407018;32;20112;-61
2023/10/26 02:42:31;;;;;;;0.50;0.50;;;10.50;99.90;;;;;;4407996;32;20077;-62
2023/10/26 02:44:57;;;;;;;0.80;0.80;;;10.60;99.90;;;;;;4406216;32;20065;-61
2023/10/26 02:47:23;;;;;;;0.68;0.68;;;10.60;99.90;;;;;;4409031;32;20062;-61
2023/10/26 02:49:49;;;;;;;0.40;0.40;;;10.60;99.90;;;;;;4410229;32;20124;-60
2023/10/26 02:52:15;;;;;;;0.55;0.55;;;10.60;99.90;;;;;;4408820;32;20507;-60
2023/10/26 02:54:40;;;;;;;0.65;0.65;;;10.50;99.90;;;;;;4406903;32;20102;-60
2023/10/26 02:57:06;;;;;;;0.75;0.75;;;10.60;99.90;;;;;;4403384;32;20529;-61
2023/10/26 02:59:31;;;;;;;0.40;0.40;;;10.60;99.90;;;;;;4408121;32;20081;-61
2023/10/26 03:01:56;;;;;;;0.50;0.50;;;10.60;99.90;;;;;;4409306;32;20074;-61
2023/10/26 03:04:22;;;;;;;0.85;0.60;;;10.60;99.90;;;;;;4406375;32;20093;-61
2023/10/26 03:06:47;;;;;;;0.47;0.47;;;10.60;99.90;;;;;;4406552;32;20093;-60
2023/10/26 03:09:13;;;;;;;2.20;0.62;;;10.60;99.90;;;;;;4404996;32;20438;-61
2023/10/26 03:11:39;;;;;;;0.40;0.40;;;10.60;99.90;;;;;;4405102;32;20081;-62
2023/10/26 03:14:05;;;;;;;1.27;0.70;;;10.60;99.90;;;;;;4409113;32;20200;-61
2023/10/26 03:16:31;;;;;;;1.25;0.70;;;10.50;99.90;;;;;;4405205;32;20700;-62
2023/10/26 03:18:57;;;;;;;0.70;0.60;;;10.60;99.90;;;;;;4405039;32;20345;-62
2023/10/26 03:21:22;;;;;;;1.50;1.10;;;10.60;99.90;;;;;;4405448;32;20085;-62
2023/10/26 03:23:52;;;;;;;0.30;0.30;;;10.60;99.90;;;;;;4409240;32;20061;-61
2023/10/26 03:26:19;;;;;;;0.85;0.73;;;10.60;99.90;;;;;;4406046;32;20532;-61
2023/10/26 03:28:45;;;;;;;0.85;0.75;;;10.60;99.90;;;;;;4404379;32;20524;-62
2023/10/26 03:31:11;;;;;;;1.65;0.73;;;10.60;99.90;;;;;;4404410;32;20090;-61
2023/10/26 03:33:37;;;;;;;0.60;0.60;;;10.60;99.90;;;;;;4405274;32;20154;-61
2023/10/26 03:36:03;;;;;;;0.77;0.77;;;10.60;99.90;;;;;;4388903;32;20514;-61
2023/10/26 03:38:28;;;;;;;0.50;0.50;;;10.60;99.90;;;;;;4401606;32;20109;-61
2023/10/26 03:40:54;;;;;;;0.70;0.55;;;10.60;99.90;;;;;;4404538;32;20085;-61
2023/10/26 03:43:19;;;;;;;0.43;0.43;;;10.60;99.90;;;;;;4410433;32;20135;-62
2023/10/26 03:45:45;;;;;;;0.43;0.43;;;10.60;99.90;;;;;;4408317;32;20062;-62
2023/10/26 03:48:11;;;;;;;0.40;0.40;;;10.60;99.90;;;;;;4404737;32;20090;-61
2023/10/26 03:50:37;;;;;;;0.88;0.82;;;10.60;99.90;;;;;;4404305;32;20841;-61
2023/10/26 03:53:03;;;;;;;0.65;0.50;;;10.60;99.90;;;;;;4409193;32;20188;-61
2023/10/26 03:55:28;;;;;;;2.05;0.90;;;10.60;99.90;;;;;;4407291;32;20077;-62
2023/10/26 03:57:54;;;;;;;0.70;0.70;;;10.60;99.90;;;;;;4399957;32;20070;-62
2023/10/26 04:00:19;;;;;;;0.40;0.40;;;10.60;99.90;;;;;;4406538;32;20536;-61
2023/10/26 04:02:45;;;;;;;0.60;0.60;;;10.60;99.90;;;;;;4406581;32;20098;-61
2023/10/26 04:05:10;;;;;;;0.65;0.65;;;10.60;99.90;;;;;;4404558;32;20074;-60
2023/10/26 04:07:38;;;;;;;3.62;1.60;;;10.60;99.90;;;;;;4402963;32;20117;-61
2023/10/26 04:10:05;;;;;;;1.17;1.05;;;10.60;99.90;;;;;;4401507;32;20082;-61
2023/10/26 04:12:30;;;;;;;1.95;0.70;;;10.60;99.90;;;;;;4405885;32;20073;-61
2023/10/26 04:14:56;;;;;;;0.60;0.60;;;10.60;99.90;;;;;;4406317;32;20089;-60
2023/10/26 04:17:21;;;;;;;0.90;0.90;;;10.60;99.90;;;;;;4402293;32;20568;-61
2023/10/26 04:19:47;;;;;;;0.40;0.40;;;10.60;99.90;;;;;;4404246;32;20069;-61
2023/10/26 04:22:12;;;;;;;2.92;0.90;;;10.60;99.90;;;;;;4402995;32;20070;-61
2023/10/26 04:24:38;;;;;;;0.50;0.50;;;10.60;99.90;;;;;;4407866;32;20074;-60
2023/10/26 04:27:03;;;;;;;0.50;0.50;;;10.60;99.90;;;;;;4406150;32;20546;-61
2023/10/26 04:29:29;;;;;;;3.97;1.80;;;10.60;99.90;;;;;;4407759;32;20094;-61
2023/10/26 04:31:54;;;;;;;0.60;0.60;;;10.60;99.90;;;;;;4407096;32;20101;-61
2023/10/26 04:34:20;;;;;;;0.32;0.32;;;10.60;99.90;;;;;;4405962;32;20077;-61
2023/10/26 04:36:46;;;;;;;0.55;0.55;;;10.60;99.90;;;;;;4399626;32;20181;-61
2023/10/26 04:39:12;;;;;;;0.65;0.57;;;10.60;99.90;;;;;;4404869;32;20065;-61
2023/10/26 04:41:38;;;;;;;0.75;0.70;;;10.50;99.90;;;;;;4408223;32;20086;-60
2023/10/26 04:44:05;;;;;;;1.15;0.80;;;10.60;99.90;;;;;;4408314;32;20073;-61
2023/10/26 04:46:31;;;;;;;0.77;0.65;;;10.60;99.90;;;;;;4403973;32;20592;-61
2023/10/26 04:48:56;;;;;;;0.70;0.70;;;10.60;99.90;;;;;;4407937;32;20159;-61
2023/10/26 04:51:21;;;;;;;1.27;0.75;;;10.50;99.90;;;;;;4405499;32;20103;-61
2023/10/26 04:53:47;;;;;;;2.80;0.60;;;10.50;99.90;;;;;;4405464;32;20106;-60
2023/10/26 04:56:12;;;;;;;0.52;0.52;;;10.60;99.90;;;;;;4404543;32;20291;-61
2023/10/26 04:58:38;;;;;;;0.75;0.57;;;10.60;99.90;;;;;;4400439;32;20074;-60
2023/10/26 05:01:05;;;;;;;0.60;0.60;;;10.60;99.90;;;;;;4405959;32;20125;-61
2023/10/26 05:03:30;;;;;;;1.55;1.40;;;10.60;99.90;;;;;;4395355;32;20880;-61
2023/10/26 05:05:56;;;;;;;0.47;0.47;;;10.60;99.90;;;;;;4409917;32;20143;-61
2023/10/26 05:08:21;;;;;;;0.60;0.60;;;10.60;99.90;;;;;;4406336;32;20141;-61
2023/10/26 05:10:47;;;;;;;0.82;0.80;;;10.60;99.90;;;;;;4406814;32;20081;-61
2023/10/26 05:13:13;;;;;;;0.50;0.50;;;10.60;99.90;;;;;;4411715;32;20684;-61
2023/10/26 05:15:38;;;;;;;1.87;0.73;;;10.60;99.90;;;;;;4408472;32;20089;-62
2023/10/26 05:18:04;;;;;;;0.50;0.50;;;10.60;99.90;;;;;;4400935;32;20086;-62
2023/10/26 05:20:32;;;;;;;0.43;0.43;;;10.60;99.90;;;;;;4407106;32;20069;-61
2023/10/26 05:22:58;;;;;;;0.43;0.43;;;10.60;99.90;;;;;;4409755;32;20078;-60
2023/10/26 05:25:24;;;;;;;1.95;0.98;;;10.60;99.90;;;;;;4408636;32;20426;-60
2023/10/26 05:27:50;;;;;;;0.45;0.45;;;10.60;99.90;;;;;;4405474;32;20085;-60
2023/10/26 05:30:16;;;;;;;0.50;0.50;;;10.60;99.90;;;;;;4406057;32;20066;-61
2023/10/26 05:32:41;;;;;;;1.55;0.50;;;10.60;99.90;;;;;;4406878;32;20086;-61
2023/10/26 05:35:08;;;;;;;0.65;0.50;;;10.60;99.90;;;;;;4405803;32;20101;-61
2023/10/26 05:37:34;;;;;;;0.57;0.57;;;10.60;99.90;;;;;;4398162;32;20196;-61
2023/10/26 05:39:59;;;;;;;0.55;0.55;;;10.60;99.90;;;;;;4408321;32;20927;-60
2023/10/26 05:42:25;;;;;;;0.70;0.70;;;10.60;99.90;;;;;;4409432;32;20073;-61
2023/10/26 05:44:53;;;;;;;0.80;0.80;;;10.60;99.90;;;;;;4409931;32;20070;-61
2023/10/26 05:47:18;;;;;;;0.65;0.65;;;10.60;99.90;;;;;;4407881;32;20086;-62
2023/10/26 05:49:44;;;;;;;1.92;1.00;;;10.60;99.90;;;;;;4404746;32;20511;-61
2023/10/26 05:52:10;;;;;;;0.57;0.57;;;10.60;99.90;;;;;;4410194;32;20116;-61
2023/10/26 05:54:35;;;;;;;3.30;0.60;;;10.60;99.90;;;;;;4408861;32;20064;-61
2023/10/26 05:57:01;;;;;;;1.00;0.77;;;10.60;99.90;;;;;;4402017;32;20081;-60
2023/10/26 05:59:26;;;;;;;0.60;0.60;;;10.60;99.90;;;;;;4406381;32;20521;-61
2023/10/26 06:01:52;;;;;;;0.47;0.45;;;10.60;99.90;;;;;;4407927;32;20708;-61
2023/10/26 06:04:18;;;;;;;1.95;0.60;;;10.60;99.90;;;;;;4395157;32;20097;-61
2023/10/26 06:06:43;;;;;;;0.95;0.80;;;10.60;99.90;;;;;;4405388;32;20081;-61
2023/10/26 06:09:10;;;;;;;0.95;0.93;;;10.60;99.90;;;;;;4409788;32;20160;-61
2023/10/26 06:11:36;;;;;;;0.95;0.80;;;10.60;99.90;;;;;;4392616;32;20083;-59
2023/10/26 06:14:01;;;;;;;0.52;0.50;;;10.70;99.90;;;;;;4408748;32;20418;-61
2023/10/26 06:16:27;;;;;;;0.40;0.40;;;10.70;99.90;;;;;;4404856;32;20085;-61
2023/10/26 06:18:52;;;;;;;0.82;0.75;;;10.70;99.90;;;;;;4403480;32;20522;-61
2023/10/26 06:21:18;;;;;;;0.40;0.40;;;10.70;99.90;;;;;;4409320;32;20062;-61
2023/10/26 06:23:44;;;;;;;0.73;0.73;;;10.60;99.90;;;;;;4408565;32;20529;-61
2023/10/26 06:26:09;;;;;;;0.80;0.80;;;10.70;99.90;;;;;;4409948;32;20065;-61
2023/10/26 06:28:35;;;;;;;0.70;0.52;;;10.60;99.90;;;;;;4409397;32;20069;-61
2023/10/26 06:31:10;;;;;;;0.70;0.57;;;10.60;99.90;;;;;;4409119;32;20093;-61
2023/10/26 06:33:36;;;;;;;0.73;0.68;;;10.60;99.90;;;;;;4405866;32;20078;-60
2023/10/26 06:36:02;;;;;;;0.50;0.50;;;10.60;99.90;;;;;;4404539;32;20061;-61
2023/10/26 06:38:28;;;;;;;0.88;0.80;;;10.60;99.90;;;;;;4400393;32;20089;-60
2023/10/26 06:40:54;;;;;;;0.80;0.80;;;10.60;99.90;;;;;;4394950;32;20074;-61
2023/10/26 06:43:20;;;;;;;0.52;0.52;;;10.60;99.90;;;;;;4410371;32;20068;-60
2023/10/26 06:45:45;;;;;;;1.12;0.68;;;10.60;99.90;;;;;;4405850;32;20082;-61
2023/10/26 06:48:11;;;;;;;0.65;0.65;;;10.60;99.90;;;;;;4403343;32;20538;-61
2023/10/26 06:50:37;;;;;;;1.90;0.62;;;10.60;99.90;;;;;;4405320;32;20090;-61
2023/10/26 06:53:03;;;;;;;0.60;0.60;;;10.60;99.90;;;;;;4408410;32;20074;-61
2023/10/26 06:55:33;;;;;;;0.40;0.40;;;10.70;99.90;;;;;;4408385;32;20517;-61
2023/10/26 06:57:59;;;;;;;0.70;0.70;;;10.60;99.90;;;;;;4387259;32;20656;-61
2023/10/26 07:00:24;;;;;;;0.80;0.80;;;10.60;99.90;;;;;;4407589;32;20078;-61
2023/10/26 07:02:50;;;;;;;0.37;0.37;;;10.60;99.90;;;;;;4391195;32;20158;-61
2023/10/26 07:05:16;;;;;;;0.82;0.62;;;10.60;99.90;;;;;;4407091;32;20078;-61
2023/10/26 07:07:41;;;;;;;0.50;0.50;;;10.60;99.90;;;;;;4404887;32;20073;-61
2023/10/26 07:10:14;;;;;;;1.83;1.15;;;10.60;99.90;;;;;;4404779;32;20113;-60
2023/10/26 07:12:40;;;;;;;12.57;0.50;;;10.60;99.90;;;;;;4407898;32;20097;-61
2023/10/26 07:15:06;;;;;;;0.70;0.70;;;10.60;99.90;;;;;;4393031;32;21607;-61
2023/10/26 07:17:32;;;;;;;1.00;0.75;;;10.50;99.90;;;;;;4400318;32;20101;-61
2023/10/26 07:19:57;;;;;;;2.42;0.85;;;10.50;99.90;;;;;;4408555;32;20070;-60
2023/10/26 07:22:23;;;;;;;0.50;0.50;;;10.50;99.90;;;;;;4407588;32;20082;-61
2023/10/26 07:24:49;;;;;;;0.40;0.40;;;10.50;99.90;;;;;;4404696;32;20180;-61
2023/10/26 07:27:15;;;;;;;0.93;0.88;;;10.50;99.90;;;;;;4404298;32;20573;-61
2023/10/26 07:29:40;;;;;;;0.50;0.50;;;10.40;99.90;;;;;;4407487;32;20058;-60
2023/10/26 07:32:07;;;;;;;1.02;0.93;;;10.50;99.90;;;;;;4408187;32;20122;-61
2023/10/26 07:34:32;;;;;;;0.50;0.50;;;10.50;99.90;;;;;;4407112;32;20058;-62
2023/10/26 07:36:58;;;;;;;1.75;0.85;;;10.60;99.90;;;;;;4397980;32;20089;-62
2023/10/26 07:39:24;;;;;;;0.57;0.55;;;10.60;99.90;;;;;;4406108;32;20077;-62
2023/10/26 07:41:49;;;;;;;1.15;0.80;;;10.60;99.90;;;;;;4406760;32;20074;-62
2023/10/26 07:44:15;;;;;;;0.68;0.68;;;10.70;99.90;;;;;;4409008;32;20097;-61
2023/10/26 07:46:40;;;;;;;0.30;0.30;;;10.60;99.90;;;;;;4403385;32;20078;-61
2023/10/26 07:49:08;;;;;;;0.73;0.73;;;10.70;99.90;;;;;;4403754;32;20224;-61
2023/10/26 07:51:33;;;;;;;0.40;0.40;;;10.70;99.90;;;;;;4403800;32;20146;-61
2023/10/26 07:53:59;;;;;;;0.70;0.70;;;10.70;99.90;;;;;;4406725;32;20144;-61
2023/10/26 07:56:24;;;;;;;0.40;0.40;;;10.70;99.90;;;;;;4402446;32;20545;-61
2023/10/26 07:58:49;;;;;;;1.85;0.62;;;10.70;99.90;;;;;;4401055;32;20101;-60
2023/10/26 08:01:15;;;;;;;0.52;0.52;;;10.80;99.90;;;;;;4405434;32;20621;-61
2023/10/26 08:03:41;;;;;;;3.60;1.20;;;10.70;99.90;;;;;;4405838;32;20418;-61
2023/10/26 08:06:09;;;;;;;0.57;0.57;;;10.80;99.90;;;;;;4408815;32;20065;-61
2023/10/26 08:08:35;;;;;;;6.43;0.60;;;10.80;99.90;;;;;;4402830;32;20359;-61
2023/10/26 08:11:16;;;;;;;0.50;0.50;;;10.80;99.90;;;;;;4409025;32;20551;-61
2023/10/26 08:13:41;;;;;;;0.88;0.82;;;10.70;99.90;;;;;;4407394;32;20085;-59
2023/10/26 08:16:07;;;;;;;0.47;0.47;;;10.70;99.90;;;;;;4406623;32;20126;-61
2023/10/26 08:18:33;;;;;;;0.50;0.50;;;10.70;99.90;;;;;;4400500;32;20141;-60
2023/10/26 08:20:59;;;;;;;0.47;0.47;;;10.70;99.90;;;;;;4405039;32;20086;-60
2023/10/26 08:23:25;;;;;;;0.50;0.50;;;10.80;99.90;;;;;;4407658;32;20506;-62
2023/10/26 08:25:50;;;;;;;0.32;0.32;;;10.80;99.90;;;;;;4396924;32;20089;-62
2023/10/26 08:28:17;;;;;;;0.73;0.52;;;10.80;99.90;;;;;;4402870;32;20130;-60
2023/10/26 08:30:42;;;;;;;0.35;0.35;;;10.70;99.90;;;;;;4404947;32;20193;-60
2023/10/26 08:33:08;;;;;;;1.58;0.70;;;10.70;99.90;;;;;;4405439;32;20533;-61
2023/10/26 08:35:34;;;;;;;0.65;0.62;;;10.70;99.90;;;;;;4402563;32;20066;-60
2023/10/26 08:37:59;;;;;;;0.52;0.52;;;10.70;99.90;;;;;;4386208;32;21410;-62
2023/10/26 08:40:25;;;;;;;1.17;0.95;;;10.80;99.90;;;;;;4406666;32;20769;-61
2023/10/26 08:42:51;;;;;;;0.60;0.60;;;10.80;99.90;;;;;;4406941;32;20062;-61
2023/10/26 08:45:21;;;;;;;0.50;0.50;;;10.90;99.90;;;;;;4407869;32;20402;-61
2023/10/26 08:47:49;;;;;;;0.98;0.55;;;11.00;99.90;;;;;;4405776;32;20148;-60
2023/10/26 08:50:14;;;;;;;2.20;1.17;;;11.00;99.90;;;;;;4403431;32;20101;-61
2023/10/26 08:52:41;;;;;;;1.12;0.68;;;11.00;99.90;;;;;;4393033;32;20167;-61
2023/10/26 08:55:07;;;;;;;0.90;0.77;;;11.00;99.90;;;;;;4397430;32;20062;-61
2023/10/26 08:57:32;;;;;;;1.08;0.88;;;11.00;99.90;;;;;;4398633;32;20105;-61
2023/10/26 08:59:59;;;;;;;0.82;0.80;;;10.90;99.90;;;;;;4404069;32;20129;-61
2023/10/26 09:02:25;;;;;;;0.73;0.70;;;10.90;99.90;;;;;;4403276;32;20098;-61
2023/10/26 09:05:08;;;;;;;2.33;1.02;;;10.90;99.90;;;;;;4406538;32;20073;-61
2023/10/26 09:07:34;;;;;;;0.52;0.52;;;10.90;99.90;;;;;;4403666;32;20090;-61
2023/10/26 09:10:00;;;;;;;0.70;0.70;;;10.90;99.90;;;;;;4405193;32;20116;-61
2023/10/26 09:12:25;;;;;;;1.08;0.85;;;10.80;99.90;;;;;;4405351;32;20066;-61
2023/10/26 09:15:07;;;;;;;0.80;0.70;;;11.00;99.90;;;;;;4408827;32;20090;-62
2023/10/26 09:17:34;;;;;;;0.70;0.70;;;11.00;99.90;;;;;;4398328;32;20209;-61
2023/10/26 09:20:17;;;;;;;0.68;0.68;;;11.00;99.90;;;;;;4397951;32;20458;-62
2023/10/26 09:22:42;;;;;;;1.40;0.55;;;11.00;99.90;;;;;;4406343;32;20074;-61
2023/10/26 09:25:11;;;;;;;0.37;0.37;;;11.00;99.90;;;;;;4407043;32;20066;-61
2023/10/26 09:27:37;;;;;;;0.60;0.60;;;11.00;99.90;;;;;;4403164;32;20090;-61
2023/10/26 09:30:05;;;;;;;2.70;0.95;;;11.00;99.90;;;;;;4406801;32;20407;-61
2023/10/26 09:32:32;;;;;;;0.73;0.73;;;11.00;99.90;;;;;;4393055;32;20283;-60
2023/10/26 09:34:57;;;;;;;1.10;0.70;;;11.00;99.90;;;;;;4380874;32;20094;-63
2023/10/26 09:37:23;;;;;;;4.12;0.90;;;11.00;99.90;;;;;;4397239;32;20550;-62
2023/10/26 09:39:51;;;;;;;1.65;0.88;;;11.10;99.90;;;;;;4403653;32;20443;-62
2023/10/26 09:42:17;;;;;;;0.75;0.70;;;11.00;99.90;;;;;;4405433;32;20584;-63
2023/10/26 09:44:43;;;;;;;0.95;0.57;;;11.00;99.90;;;;;;4406630;32;20074;-61
2023/10/26 09:47:10;;;;;;;0.80;0.60;;;11.00;99.90;;;;;;4405287;32;20121;-62
2023/10/26 09:49:36;;;;;;;0.43;0.43;;;11.10;99.90;;;;;;4409075;32;20588;-62
2023/10/26 09:52:01;;;;;;;0.47;0.47;;;11.10;99.90;;;;;;4410620;32;20094;-62
2023/10/26 09:54:31;;;;;;;0.52;0.52;;;11.20;99.90;;;;;;4406101;32;20082;-62
2023/10/26 09:57:03;;;;;;;0.32;0.32;;;11.20;99.90;;;;;;4402666;32;20098;-61
2023/10/26 09:59:29;;;;;;;0.30;0.30;;;11.20;99.90;;;;;;4405736;32;20085;-61
2023/10/26 10:01:54;;;;;;;1.12;1.00;;;11.30;99.90;;;;;;4408318;32;20414;-61
2023/10/26 10:04:37;;;;;;;0.40;0.40;;;11.30;99.90;;;;;;4405374;32;20101;-62
2023/10/26 10:07:04;;;;;;;0.50;0.50;;;11.30;99.90;;;;;;4405199;32;20078;-62
2023/10/26 10:09:30;;;;;;;0.50;0.50;;;11.30;99.90;;;;;;4407124;32;20546;-62
2023/10/26 10:12:15;;;;;;;0.68;0.68;;;11.30;99.90;;;;;;4410076;32;20066;-62
2023/10/26 10:14:51;;;;;;;0.50;0.50;;;11.40;99.90;;;;;;4408775;32;20097;-62
2023/10/26 10:17:18;;;;;;;0.90;0.90;;;11.40;99.90;;;;;;4401874;32;20086;-62
2023/10/26 10:19:46;;;;;;;0.32;0.32;;;11.40;99.90;;;;;;4389498;32;20082;-62
2023/10/26 10:22:36;;;;;;;0.40;0.40;;;11.30;99.90;;;;;;4407582;32;20097;-61
2023/10/26 10:25:02;;;;;;;0.50;0.50;;;11.40;99.90;;;;;;4398011;32;20081;-62
2023/10/26 10:27:28;;;;;;;0.88;0.85;;;11.40;99.90;;;;;;4403470;32;20462;-62
2023/10/26 10:29:58;;;;;;;0.68;0.68;;;11.40;99.90;;;;;;4410575;32;20329;-62
2023/10/26 10:32:45;;;;;;;0.60;0.60;;;11.40;99.90;;;;;;4410763;32;20501;-61
2023/10/26 10:35:12;;;;;;;0.70;0.47;;;11.40;99.90;;;;;;4407797;32;20110;-61
2023/10/26 10:37:38;;;;;;;0.62;0.62;;;11.40;99.90;;;;;;4400580;32;20069;-62
2023/10/26 10:40:19;;;;;;;0.50;0.50;;;11.50;99.90;;;;;;4409674;32;20129;-62
2023/10/26 10:42:49;;;;;;;0.80;0.75;;;11.40;99.90;;;;;;4408699;32;20109;-62
2023/10/26 10:45:15;;;;;;;4.37;0.95;;;11.40;99.90;;;;;;4406699;32;20105;-60
2023/10/26 10:47:42;;;;;;;0.40;0.40;;;11.50;99.90;;;;;;4402362;32;20075;-62
2023/10/26 10:50:25;;;;;;;0.40;0.40;;;11.40;99.90;;;;;;4406225;32;20148;-61
2023/10/26 10:52:53;;;;;;;0.47;0.47;;;11.40;99.90;;;;;;4404706;32;20061;-61
2023/10/26 10:55:28;;;;;;;1.00;0.70;;;11.50;99.90;;;;;;4382498;32;20065;-60
2023/10/26 10:58:03;;;;;;;0.50;0.50;;;11.40;99.90;;;;;;4383268;32;20455;-61
2023/10/26 11:00:45;;;;;;;0.73;0.73;;;11.40;99.90;;;;;;4407098;32;20069;-61
2023/10/26 11:03:20;;;;;;;1.67;0.73;;;11.40;99.90;;;;;;4408884;32;20092;-61
2023/10/26 11:05:46;;;;;;;0.82;0.52;;;11.50;99.90;;;;;;4405789;32;20087;-61
2023/10/26 11:08:12;;;;;;;0.52;0.52;;;11.40;99.90;;;;;;4404224;32;20066;-61
2023/10/26 11:10:38;;;;;;;0.52;0.52;;;11.30;99.90;;;;;;4407142;32;20070;-61
2023/10/26 11:13:04;;;;;;;0.68;0.68;;;11.30;99.90;;;;;;4410481;32;20077;-60
2023/10/26 11:15:33;;;;;;;2.45;0.93;;;11.40;99.90;;;;;;4409298;32;20148;-61
2023/10/26 11:17:59;;;;;;;0.30;0.30;;;11.50;99.90;;;;;;4398710;32;20089;-60
2023/10/26 11:20:37;;;;;;;0.35;0.35;;;11.40;99.90;;;;;;4407514;32;20097;-60
2023/10/26 11:23:04;;;;;;;1.30;1.10;;;11.50;99.90;;;;;;4409694;32;20081;-61
2023/10/26 11:25:30;;;;;;;1.17;0.68;;;11.50;99.90;;;;;;4406678;32;20078;-62
2023/10/26 11:27:56;;;;;;;0.40;0.40;;;11.50;99.90;;;;;;4403563;32;20094;-61
2023/10/26 11:30:22;;;;;;;0.82;0.70;;;11.50;99.90;;;;;;4391327;32;20432;-62
2023/10/26 11:32:47;;;;;;;1.75;0.60;;;11.50;99.90;;;;;;4405313;32;20104;-62
2023/10/26 11:35:14;;;;;;;3.50;0.68;;;11.40;99.90;;;;;;4406039;32;20854;-60
2023/10/26 11:37:42;;;;;;;1.05;0.50;;;11.50;99.90;;;;;;4394224;32;20089;-61
2023/10/26 11:40:10;;;;;;;0.40;0.40;;;11.50;99.90;;;;;;4404290;32;20101;-61
2023/10/26 11:42:52;;;;;;;0.75;0.60;;;11.50;99.90;;;;;;4393961;32;20089;-61
2023/10/26 11:45:20;;;;;;;0.50;0.50;;;11.50;99.90;;;;;;4395754;32;20676;-61
2023/10/26 11:47:48;;;;;;;0.40;0.40;;;11.60;99.90;;;;;;4404642;32;20086;-61
2023/10/26 11:50:37;;;;;;;0.50;0.50;;;11.60;99.90;;;;;;4402873;32;88388;-61
2023/10/26 11:53:04;;;;;;;0.50;0.50;;;11.60;99.90;;;;;;4405678;32;20081;-61
2023/10/26 11:55:32;;;;;;;0.40;0.40;;;11.50;99.90;;;;;;4401332;32;20074;-62
2023/10/26 11:57:58;;;;;;;0.93;0.88;;;11.60;99.90;;;;;;4393506;32;20086;-62
2023/10/26 12:00:25;;;;;;;0.88;0.70;;;11.50;99.90;;;;;;4392510;32;20085;-59
2023/10/26 12:02:54;;;;;;;0.82;0.70;;;11.50;99.90;;;;;;4407388;32;20070;-61
2023/10/26 12:05:21;;;;;;;0.85;0.62;;;11.50;99.90;;;;;;4405835;32;20074;-62
2023/10/26 12:07:47;;;;;;;0.47;0.47;;;11.40;99.90;;;;;;4404283;32;20078;-61
2023/10/26 12:10:16;;;;;;;1.00;0.73;;;11.40;99.90;;;;;;4402770;32;20082;-62
2023/10/26 12:12:42;;;;;;;0.60;0.60;;;11.30;99.90;;;;;;4391791;32;20061;-62
2023/10/26 12:15:08;;;;;;;0.70;0.70;;;11.30;99.90;;;;;;4405117;32;20516;-61
2023/10/26 12:17:34;;;;;;;0.60;0.60;;;11.40;99.90;;;;;;4397771;32;21126;-61
2023/10/26 12:20:00;;;;;;;0.40;0.40;;;11.40;99.90;;;;;;4405475;32;20081;-61
2023/10/26 12:22:26;;;;;;;0.60;0.60;;;11.40;99.90;;;;;;4407717;32;20085;-62
2023/10/26 12:24:51;;;;;;;1.55;1.45;;;11.40;99.90;;;;;;4405616;32;20094;-62
2023/10/26 12:27:18;;;;;;;0.88;0.82;;;11.30;99.90;;;;;;4403484;32;20085;-62
2023/10/26 12:29:43;;;;;;;0.50;0.50;;;11.30;99.90;;;;;;4405486;32;20154;-62
2023/10/26 12:32:09;;;;;;;0.52;0.52;;;11.40;99.90;;;;;;4391440;32;20089;-61
2023/10/26 12:34:35;;;;;;;1.27;0.85;;;11.40;99.90;;;;;;4405220;32;20216;-61
2023/10/26 12:37:00;;;;;;;0.70;0.70;;;11.40;99.90;;;;;;4397349;32;20554;-61
2023/10/26 12:39:26;;;;;;;1.27;0.80;;;11.40;99.90;;;;;;4400120;32;20074;-62
2023/10/26 12:41:51;;;;;;;0.45;0.45;;;11.30;99.90;;;;;;4404069;32;20093;-62
2023/10/26 12:44:20;;;;;;;0.40;0.40;;;11.40;99.90;;;;;;4404604;32;20065;-62
2023/10/26 12:46:46;;;;;;;0.60;0.60;;;11.30;99.90;;;;;;4402241;32;20082;-62